Time;durP1;ratioP1;P1;durP2;ratioP2;P2;SDS_P1;SDS_P2;PMS_P1;PMS_P2;Temp;Humidity;BMP_temperature;BMP_pressure;BME280_temperature;BME280_humidity;BME280_pressure;Samples;Min_cycle;Max_cycle;Signal;HPM_P1;HPM_P2
2024/02/15 00:00:30;;;;;;;15.48;9.70;;;23.70;43.60;;;;;;6139770;28;81672;-61
2024/02/15 00:03:31;;;;;;;16.80;9.88;;;23.80;43.60;;;;;;6141567;28;81109;-62
2024/02/15 00:06:32;;;;;;;17.73;9.95;;;23.80;43.60;;;;;;6149315;28;82211;-64
2024/02/15 00:09:32;;;;;;;18.08;10.30;;;23.70;43.60;;;;;;6151878;28;83459;-65
2024/02/15 00:12:33;;;;;;;17.20;9.98;;;23.70;43.60;;;;;;6135854;28;83326;-63
2024/02/15 00:15:34;;;;;;;18.33;10.48;;;23.70;43.50;;;;;;6148210;28;86734;-65
2024/02/15 00:18:35;;;;;;;18.77;10.98;;;23.70;43.50;;;;;;6133466;28;82975;-63
2024/02/15 00:21:36;;;;;;;18.17;11.00;;;23.70;43.50;;;;;;6146210;28;83521;-63
2024/02/15 00:24:37;;;;;;;18.40;11.15;;;23.70;43.40;;;;;;6148229;28;83083;-63
2024/02/15 00:27:37;;;;;;;21.05;11.90;;;23.70;43.40;;;;;;6147714;28;84783;-62
2024/02/15 00:30:38;;;;;;;20.13;11.38;;;23.70;43.30;;;;;;6143993;28;83252;-62
2024/02/15 00:33:38;;;;;;;18.88;11.15;;;23.70;43.20;;;;;;6146505;28;83509;-62
2024/02/15 00:36:39;;;;;;;20.90;11.57;;;23.70;43.20;;;;;;6148185;28;85820;-61
2024/02/15 00:39:40;;;;;;;21.15;12.43;;;23.70;43.20;;;;;;6147170;28;83184;-65
2024/02/15 00:42:40;;;;;;;17.15;11.23;;;23.70;43.20;;;;;;6146939;28;87735;-64
2024/02/15 00:45:41;;;;;;;17.73;11.40;;;23.70;43.10;;;;;;6108463;28;1181198;-63
2024/02/15 00:48:41;;;;;;;23.35;12.30;;;23.70;43.00;;;;;;6170313;28;83743;-61
2024/02/15 00:51:42;;;;;;;17.90;11.20;;;23.70;43.10;;;;;;6148253;28;83353;-64
2024/02/15 00:54:42;;;;;;;19.83;11.43;;;23.70;43.20;;;;;;6147956;28;83128;-63
2024/02/15 00:57:43;;;;;;;18.13;12.48;;;23.70;43.30;;;;;;6144014;28;83577;-63
2024/02/15 01:00:43;;;;;;;19.75;11.55;;;23.70;43.30;;;;;;6140861;28;83120;-64
2024/02/15 01:03:44;;;;;;;19.17;11.82;;;23.70;43.40;;;;;;6131328;28;83977;-61
2024/02/15 01:06:45;;;;;;;20.75;12.07;;;23.70;43.30;;;;;;6144530;28;85659;-64
2024/02/15 01:09:45;;;;;;;22.65;12.52;;;23.70;43.40;;;;;;6145036;28;89683;-48
2024/02/15 01:12:46;;;;;;;20.25;12.95;;;23.70;43.20;;;;;;6168337;28;83168;-50
2024/02/15 01:15:46;;;;;;;20.80;12.20;;;23.70;43.30;;;;;;6145034;28;83044;-49
2024/02/15 01:18:47;;;;;;;20.25;11.30;;;23.70;43.10;;;;;;6148305;28;83368;-48
2024/02/15 01:21:47;;;;;;;20.38;12.25;;;23.70;43.60;;;;;;6147886;28;85787;-52
2024/02/15 01:24:47;;;;;;;22.55;12.45;;;23.70;42.90;;;;;;6140239;28;84283;-48
2024/02/15 01:27:48;;;;;;;20.85;11.98;;;23.70;42.80;;;;;;6142247;28;83037;-50
2024/02/15 01:30:49;;;;;;;21.98;12.40;;;23.70;42.80;;;;;;6147996;28;83739;-48
2024/02/15 01:33:50;;;;;;;20.20;11.65;;;23.70;42.80;;;;;;6147470;28;83191;-47
2024/02/15 01:36:51;;;;;;;21.73;11.88;;;23.70;42.70;;;;;;6148186;28;83254;-47
2024/02/15 01:39:51;;;;;;;17.67;11.93;;;23.70;42.70;;;;;;6135766;28;83029;-48
2024/02/15 01:42:51;;;;;;;20.10;11.70;;;23.70;42.60;;;;;;6147608;28;83899;-49
2024/02/15 01:45:52;;;;;;;19.00;11.57;;;23.70;42.50;;;;;;6150264;28;83721;-64
2024/02/15 01:48:52;;;;;;;21.20;11.50;;;23.70;42.50;;;;;;6151461;28;84027;-67
2024/02/15 01:51:53;;;;;;;18.52;11.85;;;23.70;42.50;;;;;;6152571;28;82754;-68
2024/02/15 01:54:53;;;;;;;19.13;12.27;;;23.70;42.70;;;;;;6149944;28;83030;-71
2024/02/15 01:57:54;;;;;;;19.45;11.75;;;23.70;42.60;;;;;;6137007;28;83233;-70
2024/02/15 02:00:55;;;;;;;22.60;11.85;;;23.70;42.70;;;;;;6144850;28;84224;-70
2024/02/15 02:03:55;;;;;;;17.83;11.27;;;23.70;42.80;;;;;;6141382;28;83463;-45
2024/02/15 02:06:59;;;;;;;18.17;10.98;;;23.70;42.70;;;;;;6141168;28;83560;-50
2024/02/15 02:09:59;;;;;;;20.83;11.98;;;23.70;42.70;;;;;;6152750;28;83312;-51
2024/02/15 02:13:02;;;;;;;20.05;10.90;;;23.70;42.60;;;;;;6133404;28;84057;-46
2024/02/15 02:16:02;;;;;;;15.48;10.45;;;23.70;42.60;;;;;;6131829;28;83235;-50
2024/02/15 02:19:07;;;;;;;20.23;12.25;;;23.70;42.50;;;;;;6143807;28;83141;-49
2024/02/15 02:22:09;;;;;;;20.00;11.38;;;23.70;42.50;;;;;;6138755;28;82854;-51
2024/02/15 02:25:10;;;;;;;19.33;10.65;;;23.70;42.50;;;;;;6151537;28;84217;-49
2024/02/15 02:28:11;;;;;;;18.50;10.05;;;23.70;42.90;;;;;;6136626;28;83385;-51
2024/02/15 02:31:11;;;;;;;18.25;11.52;;;23.70;42.70;;;;;;6149165;28;83064;-49
2024/02/15 02:34:14;;;;;;;18.10;10.98;;;23.70;42.50;;;;;;6147276;28;83248;-49
2024/02/15 02:37:14;;;;;;;16.02;10.32;;;23.70;42.50;;;;;;6151331;28;84337;-47
2024/02/15 02:40:15;;;;;;;17.98;10.55;;;23.70;42.40;;;;;;6151494;28;83224;-49
2024/02/15 02:43:15;;;;;;;20.60;11.07;;;23.70;42.30;;;;;;6150888;28;82866;-46
2024/02/15 02:46:16;;;;;;;17.30;11.23;;;23.70;42.30;;;;;;6139776;28;83245;-50
2024/02/15 02:49:16;;;;;;;16.65;9.98;;;23.70;42.30;;;;;;6148039;28;84434;-48
2024/02/15 02:52:17;;;;;;;19.13;10.95;;;23.70;42.20;;;;;;6144254;28;84395;-48
2024/02/15 02:55:18;;;;;;;16.48;9.77;;;23.70;42.20;;;;;;6150867;28;83020;-52
2024/02/15 02:58:19;;;;;;;15.93;9.82;;;23.70;42.20;;;;;;6143969;28;83013;-65
2024/02/15 03:01:20;;;;;;;16.65;10.23;;;23.70;42.20;;;;;;6140429;28;81560;-63
2024/02/15 03:04:20;;;;;;;16.42;9.48;;;23.70;42.20;;;;;;6143932;28;84307;-62
2024/02/15 03:07:23;;;;;;;16.25;9.73;;;23.70;42.20;;;;;;6154485;28;82736;-63
2024/02/15 03:10:24;;;;;;;15.60;9.23;;;23.60;42.20;;;;;;6169084;28;80439;-59
2024/02/15 03:13:24;;;;;;;15.48;9.10;;;23.70;42.20;;;;;;6154060;28;80690;-58
2024/02/15 03:16:25;;;;;;;15.07;9.13;;;23.70;42.20;;;;;;6154215;28;80489;-50
2024/02/15 03:19:26;;;;;;;14.02;8.85;;;23.70;42.30;;;;;;6152830;28;80364;-51
2024/02/15 03:22:29;;;;;;;13.43;8.93;;;23.70;42.30;;;;;;6153510;28;81761;-51
2024/02/15 03:25:29;;;;;;;15.38;9.13;;;23.70;42.20;;;;;;6154855;28;80916;-51
2024/02/15 03:28:30;;;;;;;15.52;7.90;;;23.70;42.40;;;;;;6152592;28;82840;-51
2024/02/15 03:31:36;;;;;;;11.43;7.50;;;23.70;42.40;;;;;;6151226;28;80901;-50
2024/02/15 03:34:36;;;;;;;14.88;8.32;;;23.70;42.30;;;;;;6152630;28;80842;-45
2024/02/15 03:37:39;;;;;;;15.18;8.00;;;23.70;42.20;;;;;;6154185;28;81487;-47
2024/02/15 03:40:40;;;;;;;14.18;7.85;;;23.70;42.30;;;;;;6153008;28;80922;-46
2024/02/15 03:43:41;;;;;;;12.55;7.70;;;23.70;42.30;;;;;;6153853;28;80449;-47
2024/02/15 03:46:41;;;;;;;12.88;7.07;;;23.70;42.30;;;;;;6152245;28;81239;-46
2024/02/15 03:49:42;;;;;;;11.57;6.88;;;23.70;42.30;;;;;;6146226;28;81637;-50
2024/02/15 03:52:43;;;;;;;12.35;6.50;;;23.70;42.30;;;;;;6153670;28;80737;-48
2024/02/15 03:55:44;;;;;;;11.25;7.10;;;23.70;42.40;;;;;;6145236;28;80566;-50
2024/02/15 03:58:44;;;;;;;11.88;7.13;;;23.70;42.50;;;;;;6131075;28;80037;-53
2024/02/15 04:01:46;;;;;;;10.43;6.57;;;23.70;42.40;;;;;;6150766;28;84607;-50
2024/02/15 04:04:47;;;;;;;12.48;6.38;;;23.70;42.50;;;;;;6146079;28;80566;-48
2024/02/15 04:07:48;;;;;;;10.93;6.28;;;23.70;42.50;;;;;;6149727;28;81357;-51
2024/02/15 04:10:48;;;;;;;11.57;6.68;;;23.70;42.50;;;;;;6141203;28;80656;-48
2024/02/15 04:13:49;;;;;;;11.18;6.18;;;23.70;43.10;;;;;;6152493;28;81152;-45
2024/02/15 04:16:49;;;;;;;9.15;5.85;;;23.70;42.50;;;;;;6150976;28;80839;-48
2024/02/15 04:19:50;;;;;;;9.65;6.28;;;23.70;42.50;;;;;;6152205;28;82563;-48
2024/02/15 04:22:50;;;;;;;11.93;6.80;;;23.70;42.60;;;;;;6152684;28;80473;-47
2024/02/15 04:25:51;;;;;;;10.13;5.60;;;23.70;42.60;;;;;;6151834;28;80499;-46
2024/02/15 04:28:52;;;;;;;12.07;6.72;;;23.70;42.70;;;;;;6151690;28;80346;-46
2024/02/15 04:31:54;;;;;;;9.85;6.53;;;23.70;42.60;;;;;;6148460;28;81567;-47
2024/02/15 04:34:54;;;;;;;11.48;6.35;;;23.80;42.70;;;;;;6141306;28;80534;-51
2024/02/15 04:37:55;;;;;;;9.70;6.45;;;23.70;42.60;;;;;;6150153;28;81685;-49
2024/02/15 04:40:56;;;;;;;12.05;7.32;;;23.70;42.80;;;;;;6151368;28;80789;-52
2024/02/15 04:43:56;;;;;;;12.43;7.28;;;23.70;42.90;;;;;;6147850;28;80322;-50
2024/02/15 04:46:57;;;;;;;12.15;7.25;;;23.70;42.80;;;;;;6144282;28;80153;-54
2024/02/15 04:49:58;;;;;;;12.25;7.65;;;23.70;42.70;;;;;;6150284;28;80607;-50
2024/02/15 04:52:58;;;;;;;13.68;7.97;;;23.70;42.60;;;;;;6141975;28;80311;-50
2024/02/15 04:56:01;;;;;;;13.40;8.05;;;23.60;42.50;;;;;;6141413;28;80551;-47
2024/02/15 04:59:02;;;;;;;13.48;8.75;;;23.60;42.40;;;;;;6138360;28;80471;-52
2024/02/15 05:02:02;;;;;;;15.50;9.85;;;23.60;42.50;;;;;;6139696;28;80175;-50
2024/02/15 05:05:03;;;;;;;20.45;9.52;;;23.70;42.60;;;;;;6140902;28;80362;-50
2024/02/15 05:08:03;;;;;;;16.63;9.00;;;23.70;42.90;;;;;;6149624;28;80513;-50
2024/02/15 05:11:05;;;;;;;15.07;8.88;;;23.70;43.60;;;;;;6139314;28;80524;-51
2024/02/15 05:14:07;;;;;;;16.35;9.75;;;23.70;44.50;;;;;;6151233;28;81701;-46
2024/02/15 05:17:11;;;;;;;16.67;9.80;;;23.70;45.00;;;;;;6151664;28;80766;-48
2024/02/15 05:20:13;;;;;;;19.90;9.50;;;23.70;45.50;;;;;;6143745;28;80845;-45
2024/02/15 05:23:14;;;;;;;18.65;9.20;;;23.70;45.80;;;;;;6151598;28;82730;-51
2024/02/15 05:26:20;;;;;;;19.90;10.68;;;23.80;45.60;;;;;;6138268;28;80893;-49
2024/02/15 05:29:23;;;;;;;21.85;10.63;;;23.80;45.60;;;;;;6141388;28;84877;-45
2024/02/15 05:32:25;;;;;;;17.98;10.13;;;23.80;45.50;;;;;;6144503;28;83410;-45
2024/02/15 05:35:27;;;;;;;20.25;10.43;;;23.80;45.90;;;;;;6152131;28;83496;-47
2024/02/15 05:38:28;;;;;;;20.52;9.95;;;23.80;45.80;;;;;;6148450;28;83295;-48
2024/02/15 05:41:29;;;;;;;19.73;10.88;;;23.80;45.50;;;;;;6154924;28;82981;-50
2024/02/15 05:44:30;;;;;;;32.55;10.52;;;23.80;45.40;;;;;;6150163;28;83803;-49
2024/02/15 05:47:30;;;;;;;20.23;11.48;;;23.80;45.20;;;;;;6151111;28;83165;-50
2024/02/15 05:50:31;;;;;;;22.85;12.15;;;23.80;45.20;;;;;;6147631;28;83327;-47
2024/02/15 05:53:35;;;;;;;27.92;11.82;;;23.80;45.20;;;;;;6152638;28;83331;-48
2024/02/15 05:56:36;;;;;;;23.60;12.98;;;23.80;45.00;;;;;;6152023;28;83477;-54
2024/02/15 05:59:36;;;;;;;25.42;12.18;;;23.80;44.70;;;;;;6128236;28;84123;-49
2024/02/15 06:02:37;;;;;;;27.08;12.70;;;23.80;44.60;;;;;;6147647;28;95107;-69
2024/02/15 06:05:38;;;;;;;25.40;12.70;;;23.70;44.40;;;;;;6148124;28;85309;-69
2024/02/15 06:08:39;;;;;;;22.17;13.98;;;23.70;44.10;;;;;;6150569;28;83033;-69
2024/02/15 06:11:39;;;;;;;25.95;13.25;;;23.70;43.90;;;;;;6147784;28;83375;-67
2024/02/15 06:14:40;;;;;;;21.38;13.18;;;23.60;43.70;;;;;;6139092;28;85985;-68
2024/02/15 06:17:40;;;;;;;24.65;13.88;;;23.60;43.60;;;;;;6147762;28;85801;-69
2024/02/15 06:20:42;;;;;;;24.77;14.63;;;23.60;43.50;;;;;;6148382;28;83186;-66
2024/02/15 06:23:43;;;;;;;25.98;14.43;;;23.60;43.20;;;;;;6136307;28;84204;-64
2024/02/15 06:26:44;;;;;;;34.67;14.82;;;23.60;43.40;;;;;;6137915;28;83261;-63
2024/02/15 06:39:44;;;;;;;24.85;15.30;;;23.60;42.90;;;;;;6136272;28;83324;-68
2024/02/15 06:42:44;;;;;;;27.13;16.50;;;23.60;42.80;;;;;;6139053;28;82942;-63
2024/02/15 06:45:46;;;;;;;29.20;16.17;;;23.60;42.60;;;;;;6135858;28;84647;-67
2024/02/15 06:48:47;;;;;;;31.90;18.20;;;23.60;42.60;;;;;;6141772;28;82979;-69
2024/02/15 06:51:48;;;;;;;27.58;16.65;;;23.60;42.50;;;;;;6148473;28;88030;-69
2024/02/15 06:54:50;;;;;;;28.40;16.20;;;23.60;42.40;;;;;;6152557;28;83406;-68
2024/02/15 06:57:51;;;;;;;27.08;17.00;;;23.60;42.30;;;;;;6134970;28;82738;-67
2024/02/15 07:00:51;;;;;;;30.77;16.88;;;23.60;42.40;;;;;;6143978;28;83648;-70
2024/02/15 07:03:52;;;;;;;30.98;17.50;;;23.60;42.30;;;;;;6152466;28;82997;-63
2024/02/15 07:06:54;;;;;;;29.55;16.02;;;23.60;42.30;;;;;;6134203;28;85113;-68
2024/02/15 07:09:54;;;;;;;30.63;17.73;;;23.60;42.60;;;;;;6138112;28;83887;-66
2024/02/15 07:12:56;;;;;;;30.40;18.20;;;23.60;42.40;;;;;;6147236;28;84899;-65
2024/02/15 07:15:56;;;;;;;28.33;16.98;;;23.50;42.20;;;;;;6143015;28;82965;-67
2024/02/15 07:18:57;;;;;;;26.95;16.33;;;23.60;42.20;;;;;;6135539;28;83382;-65
2024/02/15 07:21:57;;;;;;;29.08;17.25;;;23.60;42.10;;;;;;6148778;28;83526;-66
2024/02/15 07:24:58;;;;;;;28.25;16.60;;;23.60;42.00;;;;;;6126807;28;83515;-67
2024/02/15 07:27:58;;;;;;;27.42;15.98;;;23.50;41.90;;;;;;6144913;28;83612;-66
2024/02/15 07:31:02;;;;;;;29.38;16.45;;;23.50;41.90;;;;;;6143858;28;83251;-66
2024/02/15 07:34:05;;;;;;;33.67;15.80;;;23.50;41.90;;;;;;6139991;28;83151;-66
2024/02/15 07:37:06;;;;;;;27.92;16.02;;;23.50;41.90;;;;;;6127963;28;84372;-65
2024/02/15 07:40:08;;;;;;;26.75;15.27;;;23.50;41.90;;;;;;6127409;28;84028;-65
2024/02/15 07:43:08;;;;;;;27.17;16.50;;;23.50;41.90;;;;;;6139446;28;82862;-65
2024/02/15 07:46:09;;;;;;;33.47;16.15;;;23.50;41.90;;;;;;6148605;28;84876;-65
2024/02/15 07:49:09;;;;;;;30.90;15.95;;;23.50;41.80;;;;;;6129605;28;84653;-66
2024/02/15 07:52:10;;;;;;;27.60;15.50;;;23.50;41.80;;;;;;6144801;28;83587;-65
2024/02/15 07:55:10;;;;;;;28.38;15.43;;;23.50;41.70;;;;;;6149377;28;83937;-67
2024/02/15 07:58:12;;;;;;;24.50;14.35;;;23.50;41.80;;;;;;6142602;28;83053;-66
2024/02/15 08:01:13;;;;;;;26.83;14.88;;;23.50;41.70;;;;;;6137962;28;83175;-66
2024/02/15 08:04:14;;;;;;;25.77;14.80;;;23.50;41.80;;;;;;6143711;28;85841;-65
2024/02/15 08:07:14;;;;;;;28.20;16.05;;;23.50;41.80;;;;;;6148772;28;82956;-66
2024/02/15 08:10:15;;;;;;;26.17;15.80;;;23.50;42.10;;;;;;6150266;28;83753;-46
2024/02/15 08:13:15;;;;;;;26.52;15.73;;;23.50;42.10;;;;;;6150441;28;83340;-49
2024/02/15 08:16:16;;;;;;;23.92;14.60;;;23.50;42.10;;;;;;6136869;28;83594;-46
2024/02/15 08:19:16;;;;;;;30.95;16.15;;;23.60;42.10;;;;;;6148351;28;83763;-51
2024/02/15 08:22:19;;;;;;;32.83;16.27;;;23.60;42.60;;;;;;6149771;28;83338;-51
2024/02/15 08:25:20;;;;;;;28.75;15.30;;;23.60;41.80;;;;;;6137095;28;83868;-48
2024/02/15 08:28:21;;;;;;;29.13;14.98;;;23.60;41.70;;;;;;6148958;28;83959;-65
2024/02/15 08:31:21;;;;;;;24.42;14.90;;;23.60;41.60;;;;;;6148972;28;83490;-64
2024/02/15 08:34:22;;;;;;;24.30;14.85;;;23.70;41.70;;;;;;6149336;28;83107;-64
2024/02/15 08:37:22;;;;;;;23.45;13.90;;;23.70;41.60;;;;;;6136968;28;83852;-67
2024/02/15 08:40:25;;;;;;;29.77;14.45;;;23.70;41.60;;;;;;6145399;28;83036;-66
2024/02/15 08:43:25;;;;;;;25.15;14.65;;;23.70;41.70;;;;;;6146162;28;89923;-66
2024/02/15 08:46:27;;;;;;;27.30;14.13;;;23.80;41.60;;;;;;6150983;28;84414;-68
2024/02/15 08:49:30;;;;;;;27.08;14.18;;;23.80;41.70;;;;;;6146578;28;84867;-65
2024/02/15 08:52:31;;;;;;;26.50;14.50;;;23.80;41.70;;;;;;6145598;28;83777;-66
2024/02/15 08:55:31;;;;;;;25.52;14.27;;;23.90;41.90;;;;;;6145156;28;83087;-68
2024/02/15 08:58:32;;;;;;;25.45;13.43;;;23.90;41.90;;;;;;6167689;28;82924;-66
2024/02/15 09:01:33;;;;;;;25.88;13.73;;;23.90;41.90;;;;;;6152931;28;83045;-68
2024/02/15 09:04:34;;;;;;;25.08;13.65;;;23.90;41.70;;;;;;6152095;28;83217;-50
2024/02/15 09:07:36;;;;;;;24.00;12.80;;;24.00;42.00;;;;;;6150308;28;84203;-54
2024/02/15 09:10:38;;;;;;;23.48;14.10;;;24.00;41.80;;;;;;6153967;28;82988;-55
2024/02/15 09:13:39;;;;;;;22.00;13.48;;;24.00;41.80;;;;;;6152447;28;83072;-53
2024/02/15 09:16:39;;;;;;;23.23;13.70;;;24.00;41.80;;;;;;6147265;28;82877;-54
2024/02/15 09:19:41;;;;;;;21.63;12.98;;;24.00;41.90;;;;;;6153990;28;82982;-53
2024/02/15 09:22:41;;;;;;;23.35;13.88;;;24.00;42.00;;;;;;6149051;28;83267;-51
2024/02/15 09:25:45;;;;;;;24.23;13.85;;;24.10;42.00;;;;;;6164713;28;84273;-54
2024/02/15 09:28:45;;;;;;;21.58;12.10;;;24.10;42.00;;;;;;6165142;28;83080;-53
2024/02/15 09:31:46;;;;;;;23.63;12.73;;;24.10;42.10;;;;;;6152100;28;83710;-54
2024/02/15 09:34:46;;;;;;;27.85;14.60;;;24.10;42.00;;;;;;6136902;28;84998;-54
2024/02/15 09:37:50;;;;;;;25.13;13.48;;;24.10;42.10;;;;;;6146982;28;82757;-51
2024/02/15 09:40:51;;;;;;;23.75;14.48;;;24.10;42.10;;;;;;6152700;28;83659;-55
2024/02/15 09:43:52;;;;;;;25.52;14.95;;;24.10;42.20;;;;;;6154255;28;83550;-52
2024/02/15 09:46:52;;;;;;;27.77;14.65;;;24.10;42.00;;;;;;6152586;28;85706;-49
2024/02/15 09:49:53;;;;;;;30.25;15.57;;;24.10;41.90;;;;;;6150727;28;84100;-50
2024/02/15 09:52:56;;;;;;;25.92;15.43;;;24.10;42.10;;;;;;6154581;28;83815;-51
2024/02/15 09:56:04;;;;;;;24.77;14.73;;;24.10;42.00;;;;;;6152971;28;83592;-53
2024/02/15 09:59:04;;;;;;;23.15;13.65;;;24.10;42.00;;;;;;6139009;28;85519;-49
2024/02/15 10:02:09;;;;;;;25.63;13.80;;;24.10;41.90;;;;;;6151620;28;84322;-52
2024/02/15 10:05:12;;;;;;;25.92;13.88;;;24.20;42.00;;;;;;6148061;28;84756;-47
2024/02/15 10:08:13;;;;;;;22.63;13.90;;;24.20;42.10;;;;;;6144398;28;83280;-49
2024/02/15 10:11:13;;;;;;;23.35;13.02;;;24.20;41.90;;;;;;6153883;28;83778;-47
2024/02/15 10:14:14;;;;;;;20.80;12.18;;;24.20;41.90;;;;;;6153070;28;83185;-47
2024/02/15 10:17:17;;;;;;;26.45;13.68;;;24.20;41.90;;;;;;6151779;28;84079;-50
2024/02/15 10:20:17;;;;;;;23.10;13.90;;;24.20;41.90;;;;;;6140580;28;83323;-53
2024/02/15 10:23:18;;;;;;;24.08;13.60;;;24.20;41.90;;;;;;6150224;28;83567;-52
2024/02/15 10:26:18;;;;;;;25.63;13.23;;;24.20;42.50;;;;;;6151910;28;82935;-52
2024/02/15 10:29:19;;;;;;;22.83;12.85;;;24.30;42.00;;;;;;6150479;28;84294;-51
2024/02/15 10:32:20;;;;;;;19.08;11.80;;;24.30;41.80;;;;;;6143805;28;83463;-50
2024/02/15 10:35:20;;;;;;;20.45;12.55;;;24.30;41.80;;;;;;6149566;28;84574;-51
2024/02/15 10:38:21;;;;;;;19.75;11.88;;;24.30;42.50;;;;;;6152260;28;83259;-52
2024/02/15 10:41:21;;;;;;;20.80;11.73;;;24.30;41.80;;;;;;6154047;28;83478;-49
2024/02/15 10:44:22;;;;;;;22.02;11.52;;;24.30;41.80;;;;;;6152461;28;83911;-47
2024/02/15 10:47:22;;;;;;;17.23;11.40;;;24.30;41.80;;;;;;6151899;28;83309;-50
2024/02/15 10:50:23;;;;;;;19.33;11.05;;;24.30;41.90;;;;;;6139732;28;83212;-50
2024/02/15 10:53:24;;;;;;;18.33;10.13;;;24.30;41.90;;;;;;6153394;28;83012;-53
2024/02/15 10:56:24;;;;;;;16.42;10.05;;;24.40;41.90;;;;;;6151003;28;83376;-53
2024/02/15 10:59:26;;;;;;;16.20;9.23;;;24.40;41.90;;;;;;6139427;28;83675;-55
2024/02/15 11:02:30;;;;;;;17.50;9.20;;;24.40;41.90;;;;;;6135620;28;82907;-52
2024/02/15 11:05:30;;;;;;;17.02;8.10;;;24.40;41.90;;;;;;6140288;28;83600;-54
2024/02/15 11:08:32;;;;;;;12.80;7.78;;;24.40;41.80;;;;;;6154784;28;80865;-50
2024/02/15 11:11:33;;;;;;;13.85;7.30;;;24.50;41.70;;;;;;6156208;28;80408;-54
2024/02/15 11:14:34;;;;;;;13.07;7.53;;;24.70;41.70;;;;;;6145367;28;80984;-66
2024/02/15 11:17:34;;;;;;;10.27;6.10;;;24.90;41.50;;;;;;6137364;28;82008;-66
2024/02/15 11:20:38;;;;;;;11.60;6.72;;;25.00;41.30;;;;;;6143110;28;80518;-67
2024/02/15 11:23:39;;;;;;;11.98;7.53;;;25.00;41.20;;;;;;6155420;28;80789;-67
2024/02/15 11:26:40;;;;;;;12.63;6.63;;;25.10;41.20;;;;;;6143721;28;80799;-67
2024/02/15 11:29:40;;;;;;;11.45;7.38;;;25.20;41.10;;;;;;6161597;28;87159;-68
2024/02/15 11:32:43;;;;;;;14.63;7.93;;;25.20;41.30;;;;;;6153097;28;80666;-51
2024/02/15 11:35:44;;;;;;;11.63;8.00;;;25.30;41.20;;;;;;6151879;28;80617;-50
2024/02/15 11:38:45;;;;;;;17.85;11.73;;;25.40;41.60;;;;;;6149130;28;81146;-49
2024/02/15 11:41:46;;;;;;;19.70;13.43;;;25.40;41.70;;;;;;6151268;28;82765;-49
2024/02/15 11:44:48;;;;;;;21.52;15.65;;;25.50;41.70;;;;;;6143453;28;83182;-53
2024/02/15 11:47:50;;;;;;;21.08;15.38;;;25.50;41.70;;;;;;6144846;28;86020;-53
2024/02/15 11:50:51;;;;;;;24.05;15.68;;;25.60;42.00;;;;;;6148664;28;83047;-69
2024/02/15 11:53:53;;;;;;;20.05;13.65;;;25.60;41.70;;;;;;6151360;28;84334;-68
2024/02/15 11:57:13;;;;;;;21.95;12.10;;;25.60;41.80;;;;;;6144445;28;85425;-68
2024/02/15 12:18:42;;;;;;;17.35;11.35;;;25.60;41.90;;;;;;6126524;28;84229;-74
2024/02/15 12:20:11;;;;;;;9.27;5.75;;;25.60;39.80;;;;;;6161689;28;80701;-75
2024/02/15 12:23:12;;;;;;;6.38;4.72;;;25.60;39.90;;;;;;6164831;28;81189;-75
2024/02/15 12:26:14;;;;;;;6.47;3.95;;;25.60;40.50;;;;;;6172999;28;81105;-79
2024/02/15 12:29:14;;;;;;;7.10;4.40;;;25.60;39.60;;;;;;6174555;28;81297;-62
2024/02/15 12:32:15;;;;;;;5.00;3.60;;;25.60;39.50;;;;;;6172122;28;80324;-66
2024/02/15 12:35:25;;;;;;;5.78;3.97;;;25.50;39.00;;;;;;6173386;28;80497;-62
2024/02/15 12:38:26;;;;;;;5.45;3.75;;;25.50;39.70;;;;;;6177868;28;80636;-63
2024/02/15 12:41:26;;;;;;;5.03;3.67;;;25.40;40.30;;;;;;6178654;28;81175;-70
2024/02/15 12:44:27;;;;;;;5.07;3.40;;;25.40;40.40;;;;;;6169662;28;81029;-64
2024/02/15 12:47:27;;;;;;;6.25;3.10;;;25.40;40.00;;;;;;6175400;28;80650;-69
2024/02/15 12:50:28;;;;;;;4.82;3.30;;;25.40;39.70;;;;;;6177670;28;80392;-70
2024/02/15 12:53:28;;;;;;;5.32;3.10;;;25.40;39.70;;;;;;6174849;28;80573;-76
2024/02/15 12:56:29;;;;;;;5.05;3.75;;;25.40;40.60;;;;;;6157247;28;80970;-65
2024/02/15 12:59:29;;;;;;;5.88;3.63;;;25.40;40.30;;;;;;6162879;28;81767;-67
2024/02/15 13:02:30;;;;;;;4.32;3.00;;;25.30;40.40;;;;;;6177661;28;80569;-61
2024/02/15 13:05:30;;;;;;;6.88;3.22;;;25.30;40.00;;;;;;6177191;28;80926;-61
2024/02/15 13:08:31;;;;;;;4.35;3.10;;;25.30;40.00;;;;;;6178143;28;81246;-66
2024/02/15 13:11:33;;;;;;;4.43;3.03;;;25.30;40.90;;;;;;6177661;28;80523;-66
2024/02/15 13:14:35;;;;;;;3.80;2.90;;;25.30;40.10;;;;;;6176999;28;81316;-67
2024/02/15 13:17:36;;;;;;;5.05;3.58;;;25.30;40.10;;;;;;6168472;28;80426;-67
2024/02/15 13:20:37;;;;;;;5.53;3.10;;;25.30;40.00;;;;;;6157068;28;81857;-67
2024/02/15 13:23:37;;;;;;;4.47;2.88;;;25.30;40.00;;;;;;6174549;28;80780;-51
2024/02/15 13:26:40;;;;;;;4.10;2.80;;;25.30;39.80;;;;;;6173646;28;83189;-47
2024/02/15 13:29:41;;;;;;;5.10;3.17;;;25.30;39.80;;;;;;6174110;28;80843;-52
2024/02/15 13:32:41;;;;;;;5.75;3.28;;;25.30;39.60;;;;;;6170334;28;81690;-51
2024/02/15 13:35:42;;;;;;;5.05;2.83;;;25.30;39.70;;;;;;6175193;28;82004;-52
2024/02/15 13:38:42;;;;;;;6.43;3.30;;;25.30;39.50;;;;;;6175624;28;80300;-47
2024/02/15 13:41:43;;;;;;;6.55;3.83;;;25.30;39.50;;;;;;6177462;28;80433;-48
2024/02/15 13:44:44;;;;;;;4.93;3.72;;;25.30;39.40;;;;;;6180040;28;80085;-54
2024/02/15 13:47:46;;;;;;;7.97;3.90;;;25.30;39.40;;;;;;6179962;28;80540;-52
2024/02/15 13:50:46;;;;;;;6.78;4.13;;;25.30;39.40;;;;;;6180068;28;80473;-53
2024/02/15 13:53:47;;;;;;;6.00;3.97;;;25.30;39.40;;;;;;6175800;28;80886;-53
2024/02/15 13:56:47;;;;;;;5.20;3.92;;;25.30;39.30;;;;;;6179964;28;80770;-51
2024/02/15 13:59:48;;;;;;;5.00;3.67;;;25.30;39.30;;;;;;6166568;28;80867;-68
2024/02/15 14:02:48;;;;;;;5.57;3.65;;;25.20;39.30;;;;;;6180362;28;80799;-67
2024/02/15 14:05:49;;;;;;;4.47;3.58;;;25.20;39.40;;;;;;6178820;28;80820;-68
2024/02/15 14:08:50;;;;;;;5.68;3.90;;;25.20;39.40;;;;;;6180141;28;83351;-66
2024/02/15 14:11:51;;;;;;;7.05;3.03;;;25.20;39.40;;;;;;6179371;28;80488;-65
2024/02/15 14:14:51;;;;;;;8.60;3.42;;;25.20;39.50;;;;;;6169138;28;82811;-61
2024/02/15 14:17:52;;;;;;;11.45;3.53;;;25.10;39.70;;;;;;6146010;28;80536;-49
2024/02/15 14:20:53;;;;;;;10.63;3.42;;;25.10;39.80;;;;;;6174445;28;80706;-53
2024/02/15 14:23:53;;;;;;;10.10;3.50;;;25.10;40.30;;;;;;6152578;28;80732;-54
2024/02/15 14:26:54;;;;;;;8.30;4.00;;;25.10;40.30;;;;;;6145602;28;82551;-54
2024/02/15 14:33:15;;;;;;;10.98;3.88;;;25.10;40.40;;;;;;6155814;28;80443;-54
2024/02/15 14:36:17;;;;;;;6.60;3.70;;;25.10;40.50;;;;;;6153453;28;81072;-51
2024/02/15 14:39:19;;;;;;;7.88;3.63;;;25.10;40.80;;;;;;6152786;28;81589;-56
2024/02/15 14:42:21;;;;;;;8.60;4.10;;;25.00;40.50;;;;;;6155335;28;80197;-56
2024/02/15 14:45:22;;;;;;;7.70;4.18;;;25.00;40.50;;;;;;6175598;28;83354;-52
2024/02/15 14:48:23;;;;;;;8.18;4.55;;;25.00;40.50;;;;;;6144447;28;80967;-53
2024/02/15 14:51:25;;;;;;;8.10;4.40;;;25.00;40.30;;;;;;6148971;28;81108;-55
2024/02/15 14:54:25;;;;;;;8.65;4.15;;;25.00;40.60;;;;;;6152925;28;80314;-52
2024/02/15 14:57:26;;;;;;;11.52;4.45;;;24.90;40.30;;;;;;6151506;28;81076;-54
2024/02/15 15:00:26;;;;;;;12.65;5.22;;;24.90;40.20;;;;;;6142968;28;80979;-50
2024/02/15 15:03:27;;;;;;;10.45;4.97;;;24.80;40.00;;;;;;6144445;28;81714;-50
2024/02/15 15:13:07;;;;;;;10.20;5.32;;;24.70;40.20;;;;;;6140700;28;81106;-64
2024/02/15 15:16:09;;;;;;;11.63;5.43;;;24.60;40.20;;;;;;6152797;28;80669;-65
2024/02/15 15:19:10;;;;;;;9.95;5.20;;;24.60;40.50;;;;;;6148138;28;82882;-64
2024/02/15 15:22:11;;;;;;;8.88;5.15;;;24.50;40.50;;;;;;6149316;28;81030;-62
2024/02/15 15:25:12;;;;;;;12.02;5.38;;;24.50;41.50;;;;;;6147037;28;80468;-61
2024/02/15 15:28:13;;;;;;;8.85;4.70;;;24.50;41.30;;;;;;6154474;28;81173;-61
2024/02/15 15:31:14;;;;;;;13.90;5.22;;;24.50;41.50;;;;;;6144013;28;81657;-53
2024/02/15 15:34:16;;;;;;;10.10;4.80;;;24.50;41.60;;;;;;6154176;28;80862;-56
2024/02/15 15:37:18;;;;;;;8.52;4.10;;;24.60;41.90;;;;;;6153097;28;80989;-51
2024/02/15 15:40:18;;;;;;;9.10;4.00;;;24.60;42.30;;;;;;6153738;28;80983;-53
2024/02/15 15:43:19;;;;;;;6.22;3.85;;;24.60;42.50;;;;;;6153470;28;80906;-49
2024/02/15 15:46:20;;;;;;;9.10;4.82;;;24.60;42.60;;;;;;6141605;28;80975;-53
2024/02/15 15:49:20;;;;;;;8.48;3.88;;;24.60;42.60;;;;;;6152662;28;81986;-62
2024/02/15 15:52:21;;;;;;;6.97;3.55;;;24.60;42.70;;;;;;6148689;28;84621;-66
2024/02/15 15:55:21;;;;;;;7.38;4.05;;;24.60;42.90;;;;;;6169836;28;80782;-65
2024/02/15 15:58:23;;;;;;;6.88;4.07;;;24.60;42.90;;;;;;6151033;28;83190;-63
2024/02/15 16:01:24;;;;;;;7.10;3.40;;;24.60;43.10;;;;;;6153446;28;80341;-66